Time;durP1;ratioP1;P1;durP2;ratioP2;P2;SDS_P1;SDS_P2;PMS_P1;PMS_P2;Temp;Humidity;BMP_temperature;BMP_pressure;BME280_temperature;BME280_humidity;BME280_pressure;Samples;Min_cycle;Max_cycle;Signal;HPM_P1;HPM_P2
2022/12/30 00:01:33;;;;;;;;;;;20.50;51.30;;;;;;6272581;22;43845;-62
2022/12/30 00:04:01;;;;;;;;;;;20.50;51.30;;;;;;6274021;22;43365;-63
2022/12/30 00:06:28;;;;;;;;;;;20.50;51.40;;;;;;6274021;22;43378;-63
2022/12/30 00:08:57;;;;;;;;;;;20.50;51.40;;;;;;6274135;22;43482;-63
2022/12/30 00:11:28;;;;;;;;;;;20.50;51.40;;;;;;6273410;22;43955;-63
2022/12/30 00:33:54;;;;;;;;;;;20.40;51.50;;;;;;6242570;22;44012;-63
2022/12/30 00:36:22;;;;;;;;;;;20.40;51.50;;;;;;6242445;22;43300;-63
2022/12/30 00:38:49;;;;;;;;;;;20.30;51.40;;;;;;6242038;22;43393;-63
2022/12/30 00:44:02;;;;;;;;;;;20.40;51.60;;;;;;6243315;22;44008;-63
2022/12/30 00:46:30;;;;;;;;;;;20.30;51.50;;;;;;6243879;22;43384;-63
2022/12/30 00:57:15;;;;;;;;;;;20.30;51.60;;;;;;6243041;22;43419;-63
2022/12/30 00:59:43;;;;;;;;;;;20.30;51.60;;;;;;6244066;22;43462;-63
2022/12/30 01:02:10;;;;;;;;;;;20.30;51.60;;;;;;6244293;22;43351;-63
2022/12/30 01:04:38;;;;;;;;;;;20.30;51.60;;;;;;6242944;22;44852;-63
2022/12/30 01:07:05;;;;;;;;;;;20.20;51.60;;;;;;6243542;22;43465;-63
2022/12/30 01:09:36;;;;;;;;;;;20.20;51.60;;;;;;6244145;22;43384;-63
2022/12/30 01:12:10;;;;;;;;;;;20.20;51.60;;;;;;6242751;22;43480;-63
2022/12/30 01:14:39;;;;;;;;;;;20.20;51.60;;;;;;6243846;22;43772;-63
2022/12/30 01:17:07;;;;;;;;;;;20.20;51.60;;;;;;6272829;22;43447;-64
2022/12/30 01:19:34;;;;;;;;;;;20.20;51.60;;;;;;6274865;22;43412;-63
2022/12/30 01:22:02;;;;;;;;;;;20.20;51.60;;;;;;6274228;22;43537;-63
2022/12/30 01:24:30;;;;;;;;;;;20.10;51.60;;;;;;6273737;22;43704;-63
2022/12/30 01:26:57;;;;;;;;;;;20.10;51.60;;;;;;6274612;22;43408;-63
2022/12/30 01:29:29;;;;;;;;;;;20.20;51.70;;;;;;6274661;22;43357;-63
2022/12/30 01:31:57;;;;;;;;;;;20.20;51.70;;;;;;6273674;22;43468;-63
2022/12/30 01:34:25;;;;;;;;;;;20.10;51.60;;;;;;6275183;22;43965;-63
2022/12/30 01:36:53;;;;;;;;;;;20.10;51.60;;;;;;6274101;22;43400;-63
2022/12/30 01:39:21;;;;;;;;;;;20.10;51.60;;;;;;6273877;22;43396;-63
2022/12/30 01:41:49;;;;;;;;;;;20.10;51.60;;;;;;6273958;22;43436;-63
2022/12/30 01:44:35;;;;;;;;;;;20.10;51.60;;;;;;6274132;22;44721;-63
2022/12/30 01:47:02;;;;;;;;;;;20.10;51.60;;;;;;6246188;22;43428;-63
2022/12/30 01:49:30;;;;;;;;;;;20.00;51.60;;;;;;6274540;22;43435;-63
2022/12/30 01:51:57;;;;;;;;;;;20.10;51.60;;;;;;6274358;22;43494;-63
2022/12/30 01:54:25;;;;;;;;;;;20.00;51.60;;;;;;6274266;22;44587;-63
2022/12/30 01:56:52;;;;;;;;;;;20.00;51.60;;;;;;6273733;22;43797;-63
2022/12/30 01:59:20;;;;;;;;;;;20.00;51.60;;;;;;6273936;22;43435;-63
2022/12/30 02:01:50;;;;;;;;;;;20.00;51.60;;;;;;6274774;22;43498;-63
2022/12/30 02:04:20;;;;;;;;;;;20.00;52.20;;;;;;6274314;22;44840;-63
2022/12/30 02:06:51;;;;;;;;;;;20.00;51.60;;;;;;6273090;22;43410;-63
2022/12/30 02:09:22;;;;;;;;;;;20.00;51.60;;;;;;6274418;22;43405;-63
2022/12/30 02:11:49;;;;;;;;;;;20.00;51.60;;;;;;6274579;22;43503;-63
2022/12/30 02:14:17;;;;;;;;;;;19.90;51.60;;;;;;6273378;22;45020;-63
2022/12/30 02:17:05;;;;;;;;;;;19.90;51.60;;;;;;6274025;22;43376;-63
2022/12/30 02:19:51;;;;;;;;;;;19.90;51.60;;;;;;6274443;22;43352;-63
2022/12/30 02:22:28;;;;;;;;;;;19.90;51.60;;;;;;6246097;22;43445;-63
2022/12/30 02:25:07;;;;;;;;;;;19.90;51.60;;;;;;6274621;22;44795;-63
2022/12/30 02:27:43;;;;;;;;;;;19.90;51.70;;;;;;6274072;22;43394;-63
2022/12/30 02:30:18;;;;;;;;;;;19.90;51.70;;;;;;6274460;22;43444;-63
2022/12/30 02:32:46;;;;;;;;;;;19.90;51.70;;;;;;6274282;22;43475;-63
2022/12/30 02:35:13;;;;;;;;;;;19.80;51.60;;;;;;6273598;22;43844;-63
2022/12/30 02:37:45;;;;;;;;;;;19.90;51.70;;;;;;6274353;22;43357;-63
2022/12/30 02:40:13;;;;;;;;;;;19.80;51.70;;;;;;6274452;22;43426;-63
2022/12/30 02:45:39;;;;;;;;;;;19.80;51.70;;;;;;6274320;22;44601;-63
2022/12/30 02:48:10;;;;;;;;;;;19.80;51.70;;;;;;6274267;22;43535;-63
2022/12/30 02:53:27;;;;;;;;;;;19.80;51.70;;;;;;6274541;22;43475;-63
2022/12/30 02:55:55;;;;;;;;;;;19.80;51.70;;;;;;6273725;22;44918;-63
2022/12/30 02:58:23;;;;;;;;;;;19.80;51.70;;;;;;6274224;22;43395;-63
2022/12/30 03:03:58;;;;;;;;;;;19.80;51.90;;;;;;6273999;22;43416;-63
2022/12/30 03:06:44;;;;;;;;;;;19.70;51.90;;;;;;6273668;22;44021;-63
2022/12/30 03:09:18;;;;;;;;;;;19.70;51.90;;;;;;6274104;22;43327;-63
2022/12/30 03:11:51;;;;;;;;;;;19.70;51.90;;;;;;6272219;22;43316;-62
2022/12/30 03:14:45;;;;;;;;;;;19.70;51.90;;;;;;6274332;22;43522;-63
2022/12/30 03:17:19;;;;;;;;;;;19.70;51.90;;;;;;6195954;22;44892;-63
2022/12/30 03:19:50;;;;;;;;;;;19.70;51.90;;;;;;6243122;22;43465;-63
2022/12/30 03:27:53;;;;;;;;;;;19.60;52.00;;;;;;6243197;22;44247;-63
2022/12/30 03:30:22;;;;;;;;;;;19.60;52.00;;;;;;6242258;22;43440;-63
2022/12/30 03:32:51;;;;;;;;;;;19.60;52.00;;;;;;6242230;22;43395;-63
2022/12/30 03:35:18;;;;;;;;;;;19.60;52.00;;;;;;6243064;22;43404;-63
2022/12/30 03:37:49;;;;;;;;;;;19.60;52.00;;;;;;6241969;22;44723;-63
2022/12/30 03:40:18;;;;;;;;;;;19.60;52.00;;;;;;6242510;22;43727;-63
2022/12/30 03:42:47;;;;;;;;;;;19.60;52.10;;;;;;6242027;22;43415;-63
2022/12/30 03:45:14;;;;;;;;;;;19.60;52.00;;;;;;6242509;22;43359;-63
2022/12/30 03:47:42;;;;;;;;;;;19.60;52.10;;;;;;6242715;22;44041;-63
2022/12/30 03:50:09;;;;;;;;;;;19.60;52.10;;;;;;6242324;22;43364;-63
2022/12/30 03:52:38;;;;;;;;;;;19.60;52.10;;;;;;6241497;22;43464;-63
2022/12/30 03:55:06;;;;;;;;;;;19.60;52.00;;;;;;6242996;22;43443;-63
2022/12/30 03:57:33;;;;;;;;;;;19.60;52.00;;;;;;6242832;22;43748;-63
2022/12/30 04:00:00;;;;;;;;;;;19.50;52.00;;;;;;6242170;22;43665;-62
2022/12/30 04:02:38;;;;;;;;;;;19.50;52.00;;;;;;6242883;22;43391;-63
2022/12/30 04:05:06;;;;;;;;;;;19.50;52.10;;;;;;6242809;22;43472;-63
2022/12/30 04:07:34;;;;;;;;;;;19.50;52.00;;;;;;6241858;22;44685;-63
2022/12/30 04:10:01;;;;;;;;;;;19.50;52.10;;;;;;6242653;22;43470;-63
2022/12/30 04:12:30;;;;;;;;;;;19.50;52.20;;;;;;6243108;22;43408;-63
2022/12/30 04:14:57;;;;;;;;;;;19.50;52.10;;;;;;6245154;22;43920;-62
2022/12/30 04:17:24;;;;;;;;;;;19.50;52.10;;;;;;6273660;22;44609;-63
2022/12/30 04:19:51;;;;;;;;;;;19.40;52.10;;;;;;6272526;22;43404;-63
2022/12/30 04:22:19;;;;;;;;;;;19.40;52.10;;;;;;6273235;22;43374;-63
2022/12/30 04:24:46;;;;;;;;;;;19.40;52.20;;;;;;6273762;22;43480;-63
2022/12/30 04:27:17;;;;;;;;;;;19.40;52.20;;;;;;6272809;22;45026;-63
2022/12/30 04:29:44;;;;;;;;;;;19.40;52.10;;;;;;6273263;22;43555;-63
2022/12/30 04:32:12;;;;;;;;;;;19.40;52.10;;;;;;6245805;22;43482;-63
2022/12/30 04:34:39;;;;;;;;;;;19.40;52.10;;;;;;6273494;22;43471;-63
2022/12/30 04:37:06;;;;;;;;;;;19.40;52.20;;;;;;6273104;22;43844;-63
2022/12/30 04:39:33;;;;;;;;;;;19.40;52.20;;;;;;6273124;22;43387;-63
2022/12/30 04:42:01;;;;;;;;;;;19.40;52.20;;;;;;6272525;22;43447;-63
2022/12/30 04:44:28;;;;;;;;;;;19.40;52.20;;;;;;6273730;22;43473;-63
2022/12/30 04:46:55;;;;;;;;;;;19.40;52.20;;;;;;6273451;22;43841;-63
2022/12/30 04:49:23;;;;;;;;;;;19.30;52.20;;;;;;6272606;22;43412;-63
2022/12/30 04:51:51;;;;;;;;;;;19.30;52.30;;;;;;6273374;22;43403;-62
2022/12/30 04:54:18;;;;;;;;;;;19.30;52.20;;;;;;6273512;22;43470;-63
2022/12/30 04:56:45;;;;;;;;;;;19.40;52.30;;;;;;6272240;22;45714;-63
2022/12/30 04:59:12;;;;;;;;;;;19.30;52.30;;;;;;6273023;22;43345;-63
2022/12/30 05:01:40;;;;;;;;;;;19.30;52.30;;;;;;6272986;22;43456;-63
2022/12/30 05:04:15;;;;;;;;;;;19.30;52.30;;;;;;6273157;22;43439;-63
2022/12/30 05:06:42;;;;;;;;;;;19.30;52.30;;;;;;6272982;22;43736;-63
2022/12/30 05:09:09;;;;;;;;;;;19.30;52.30;;;;;;6272045;22;43448;-63
2022/12/30 05:11:37;;;;;;;;;;;19.30;52.30;;;;;;6273192;22;43363;-62
2022/12/30 05:14:04;;;;;;;;;;;19.20;52.30;;;;;;6273278;22;43403;-62
2022/12/30 05:16:31;;;;;;;;;;;19.20;52.30;;;;;;6272060;22;44695;-63
2022/12/30 05:18:59;;;;;;;;;;;19.20;52.30;;;;;;6272802;22;43921;-63
2022/12/30 05:21:26;;;;;;;;;;;19.20;52.30;;;;;;6273173;22;43365;-63
2022/12/30 05:26:39;;;;;;;;;;;19.20;52.30;;;;;;6272675;22;44060;-63
2022/12/30 05:29:06;;;;;;;;;;;19.20;52.30;;;;;;6273028;22;43371;-63
2022/12/30 05:31:34;;;;;;;;;;;19.20;52.30;;;;;;6273729;22;43336;-62
2022/12/30 05:34:01;;;;;;;;;;;19.20;52.30;;;;;;6274337;22;43931;-63
2022/12/30 05:36:35;;;;;;;;;;;19.10;52.30;;;;;;6274657;22;45036;-63
2022/12/30 05:39:02;;;;;;;;;;;19.20;52.30;;;;;;6273632;22;43423;-63
2022/12/30 05:41:30;;;;;;;;;;;19.20;52.30;;;;;;6274011;22;43472;-63
2022/12/30 05:43:57;;;;;;;;;;;19.10;52.30;;;;;;6274740;22;43463;-63
2022/12/30 05:46:24;;;;;;;;;;;19.20;52.30;;;;;;6273694;22;43843;-63
2022/12/30 05:48:52;;;;;;;;;;;19.10;52.30;;;;;;6274475;22;43418;-63
2022/12/30 05:51:19;;;;;;;;;;;19.10;52.30;;;;;;6273601;22;43450;-63
2022/12/30 05:53:47;;;;;;;;;;;19.10;52.40;;;;;;6274309;22;43435;-63
2022/12/30 05:56:15;;;;;;;;;;;19.10;52.40;;;;;;6273559;22;43773;-63
2022/12/30 05:58:42;;;;;;;;;;;19.10;52.30;;;;;;6274267;22;43381;-63
2022/12/30 06:01:09;;;;;;;;;;;19.00;52.40;;;;;;6274585;22;43441;-63
2022/12/30 06:03:38;;;;;;;;;;;19.10;52.40;;;;;;6272495;22;43422;-63
2022/12/30 06:06:06;;;;;;;;;;;19.10;52.40;;;;;;6273197;22;45128;-63
2022/12/30 06:08:34;;;;;;;;;;;19.10;52.40;;;;;;6273712;22;43356;-63
2022/12/30 06:11:02;;;;;;;;;;;19.10;52.30;;;;;;6273771;22;43386;-63
2022/12/30 06:13:29;;;;;;;;;;;19.10;52.30;;;;;;6271544;22;43529;-63
2022/12/30 06:15:57;;;;;;;;;;;19.10;52.30;;;;;;6274288;22;43752;-63
2022/12/30 06:18:25;;;;;;;;;;;19.10;52.20;;;;;;6274392;22;43455;-63
2022/12/30 06:20:53;;;;;;;;;;;19.10;52.20;;;;;;6272993;22;43476;-63
2022/12/30 06:23:21;;;;;;;;;;;19.10;52.20;;;;;;6273880;22;43489;-63
2022/12/30 06:25:55;;;;;;;;;;;19.10;52.20;;;;;;6272966;22;44200;-63
2022/12/30 06:28:23;;;;;;;;;;;19.10;52.20;;;;;;6273497;22;43355;-63
2022/12/30 06:30:50;;;;;;;;;;;19.10;52.20;;;;;;6273791;22;43399;-63
2022/12/30 06:33:19;;;;;;;;;;;19.10;52.20;;;;;;6273166;22;43581;-63
2022/12/30 06:35:47;;;;;;;;;;;19.10;52.30;;;;;;6274108;22;44933;-63
2022/12/30 06:38:14;;;;;;;;;;;19.10;52.30;;;;;;6246755;22;43476;-63
2022/12/30 06:40:44;;;;;;;;;;;19.00;52.20;;;;;;6273299;22;43379;-63
2022/12/30 06:43:12;;;;;;;;;;;19.10;52.30;;;;;;6273882;22;43407;-62
2022/12/30 06:45:39;;;;;;;;;;;19.00;52.20;;;;;;6274250;22;44961;-63
2022/12/30 06:48:06;;;;;;;;;;;19.00;52.20;;;;;;6273010;22;43488;-63
2022/12/30 06:50:34;;;;;;;;;;;19.00;52.20;;;;;;6274256;22;43405;-63
2022/12/30 06:53:01;;;;;;;;;;;19.00;52.20;;;;;;6273206;22;43418;-62
2022/12/30 06:55:28;;;;;;;;;;;19.00;52.30;;;;;;6273940;22;44987;-63
2022/12/30 06:58:01;;;;;;;;;;;19.00;52.30;;;;;;6274030;22;43628;-63
2022/12/30 07:00:29;;;;;;;;;;;19.00;52.30;;;;;;6274406;22;43379;-63
2022/12/30 07:02:56;;;;;;;;;;;19.00;52.30;;;;;;6273134;22;43546;-63
2022/12/30 07:05:23;;;;;;;;;;;19.00;52.30;;;;;;6273897;22;44901;-63
2022/12/30 07:07:51;;;;;;;;;;;19.00;52.30;;;;;;6274110;22;43503;-63
2022/12/30 07:10:18;;;;;;;;;;;19.00;52.30;;;;;;6273456;22;43399;-63
2022/12/30 07:12:45;;;;;;;;;;;19.00;52.30;;;;;;6273503;22;43459;-63
2022/12/30 07:15:13;;;;;;;;;;;19.00;52.30;;;;;;6273668;22;44939;-63
2022/12/30 07:17:40;;;;;;;;;;;18.90;52.20;;;;;;6273098;22;43402;-63
2022/12/30 07:20:08;;;;;;;;;;;18.90;52.20;;;;;;6273820;22;43524;-63
2022/12/30 07:22:35;;;;;;;;;;;18.90;52.30;;;;;;6272942;22;43416;-63
2022/12/30 07:25:03;;;;;;;;;;;18.90;52.30;;;;;;6274086;22;44619;-63
2022/12/30 07:27:30;;;;;;;;;;;18.90;52.20;;;;;;6274024;22;43893;-63
2022/12/30 07:29:58;;;;;;;;;;;18.90;52.30;;;;;;6273563;22;43336;-63
2022/12/30 07:32:25;;;;;;;;;;;18.90;52.90;;;;;;6273710;22;43402;-63
2022/12/30 07:34:52;;;;;;;;;;;18.90;52.30;;;;;;6273668;22;43718;-62
2022/12/30 07:37:20;;;;;;;;;;;18.90;52.30;;;;;;6272987;22;43963;-63
2022/12/30 07:39:47;;;;;;;;;;;18.90;52.50;;;;;;6273750;22;43344;-64
2022/12/30 07:42:15;;;;;;;;;;;18.90;52.40;;;;;;6273227;22;43463;-63
2022/12/30 07:44:42;;;;;;;;;;;18.90;52.40;;;;;;6272785;22;43953;-62
2022/12/30 07:47:09;;;;;;;;;;;18.80;52.50;;;;;;6272484;22;43865;-63
2022/12/30 07:49:37;;;;;;;;;;;18.90;52.50;;;;;;6273678;22;43415;-64
2022/12/30 07:52:05;;;;;;;;;;;18.90;52.50;;;;;;6271781;22;43419;-63
2022/12/30 07:54:32;;;;;;;;;;;18.90;52.50;;;;;;6272374;22;44716;-63
2022/12/30 07:56:59;;;;;;;;;;;18.90;52.60;;;;;;6273670;22;43391;-62
2022/12/30 07:59:26;;;;;;;;;;;18.80;52.80;;;;;;6273116;22;43378;-62
2022/12/30 08:01:54;;;;;;;;;;;18.80;52.60;;;;;;6273486;22;43471;-62
2022/12/30 08:04:21;;;;;;;;;;;18.80;52.60;;;;;;6273437;22;43737;-62
2022/12/30 08:07:08;;;;;;;;;;;18.80;52.60;;;;;;6273085;22;43751;-62
2022/12/30 08:09:36;;;;;;;;;;;18.80;52.60;;;;;;6273787;22;43394;-62
2022/12/30 08:12:04;;;;;;;;;;;18.80;52.60;;;;;;6272544;22;43608;-62
2022/12/30 08:14:31;;;;;;;;;;;18.80;52.60;;;;;;6273080;22;44934;-62
2022/12/30 08:16:59;;;;;;;;;;;18.80;52.60;;;;;;6273487;22;43413;-62
2022/12/30 08:19:27;;;;;;;;;;;18.80;52.60;;;;;;6273344;22;43400;-62
2022/12/30 08:21:54;;;;;;;;;;;18.80;52.60;;;;;;6273325;22;43577;-61
2022/12/30 08:24:21;;;;;;;;;;;18.80;52.70;;;;;;6273403;22;44024;-63
2022/12/30 08:26:49;;;;;;;;;;;18.80;52.70;;;;;;6272550;22;43397;-62
2022/12/30 08:29:16;;;;;;;;;;;18.80;52.70;;;;;;6245919;22;43507;-62
2022/12/30 08:31:49;;;;;;;;;;;18.80;52.70;;;;;;6273074;22;43399;-62
2022/12/30 08:34:17;;;;;;;;;;;18.70;52.70;;;;;;6272606;22;43866;-64
2022/12/30 08:36:46;;;;;;;;;;;18.70;52.60;;;;;;6270145;22;43634;-63
2022/12/30 08:39:13;;;;;;;;;;;18.70;52.80;;;;;;6272293;22;43498;-62
2022/12/30 08:41:42;;;;;;;;;;;18.70;52.80;;;;;;6270862;22;43355;-63
2022/12/30 08:44:15;;;;;;;;;;;18.70;52.80;;;;;;6272212;22;44603;-63
2022/12/30 08:46:43;;;;;;;;;;;18.70;52.80;;;;;;6272669;22;43478;-63
2022/12/30 08:49:11;;;;;;;;;;;18.70;52.80;;;;;;6271718;22;43485;-62
2022/12/30 08:51:39;;;;;;;;;;;18.70;52.80;;;;;;6271743;22;43424;-62
2022/12/30 08:54:06;;;;;;;;;;;18.60;52.80;;;;;;6270946;22;44966;-62
2022/12/30 08:56:35;;;;;;;;;;;18.70;52.80;;;;;;6271897;22;43342;-63
2022/12/30 08:59:02;;;;;;;;;;;18.60;52.80;;;;;;6272712;22;43806;-62
2022/12/30 09:01:30;;;;;;;;;;;18.60;52.90;;;;;;6271887;22;43387;-63
2022/12/30 09:03:58;;;;;;;;;;;18.60;52.90;;;;;;6272923;22;43855;-64
2022/12/30 09:06:27;;;;;;;;;;;18.60;52.90;;;;;;6273169;22;43454;-63
2022/12/30 09:08:55;;;;;;;;;;;18.60;53.00;;;;;;6273246;22;43466;-65
2022/12/30 09:11:24;;;;;;;;;;;18.60;53.00;;;;;;6274101;22;43448;-63
2022/12/30 09:13:51;;;;;;;;;;;18.60;53.00;;;;;;6274229;22;43758;-64
2022/12/30 09:16:26;;;;;;;;;;;18.60;53.20;;;;;;6273358;22;43475;-63
2022/12/30 09:18:54;;;;;;;;;;;18.60;53.30;;;;;;6273117;22;43408;-64
2022/12/30 09:21:22;;;;;;;;;;;18.60;53.50;;;;;;6274860;22;43530;-63
2022/12/30 09:23:49;;;;;;;;;;;18.60;53.30;;;;;;6273194;22;43970;-63
2022/12/30 09:26:18;;;;;;;;;;;18.70;53.20;;;;;;6274330;22;43727;-63
2022/12/30 09:28:45;;;;;;;;;;;18.80;53.10;;;;;;6274466;22;43407;-63
2022/12/30 09:31:12;;;;;;;;;;;18.80;52.90;;;;;;6273591;22;43406;-63
2022/12/30 09:33:40;;;;;;;;;;;18.90;52.80;;;;;;6273822;22;43752;-63
2022/12/30 09:36:08;;;;;;;;;;;19.00;52.80;;;;;;6274656;22;43415;-63
2022/12/30 09:38:35;;;;;;;;;;;19.10;52.70;;;;;;6274044;22;43460;-63
2022/12/30 09:41:02;;;;;;;;;;;19.10;52.70;;;;;;6274417;22;43431;-63
2022/12/30 09:43:33;;;;;;;;;;;19.10;52.60;;;;;;6273067;22;44695;-63
2022/12/30 09:46:07;;;;;;;;;;;19.20;52.90;;;;;;6273816;22;43962;-63
2022/12/30 09:48:52;;;;;;;;;;;19.20;52.60;;;;;;6274673;22;43415;-63
2022/12/30 09:51:23;;;;;;;;;;;19.20;52.60;;;;;;6273764;22;43492;-63
2022/12/30 09:54:01;;;;;;;;;;;19.30;52.40;;;;;;6273920;22;44000;-63
2022/12/30 09:56:30;;;;;;;;;;;19.30;52.30;;;;;;6274670;22;43415;-63
2022/12/30 09:59:00;;;;;;;;;;;19.40;52.30;;;;;;6273613;22;43399;-62
2022/12/30 10:01:42;;;;;;;;;;;19.40;52.30;;;;;;6274989;22;43563;-63
2022/12/30 10:04:19;;;;;;;;;;;19.50;52.20;;;;;;6274374;22;43748;-63
2022/12/30 10:07:02;;;;;;;;;;;19.60;52.20;;;;;;6273736;22;43395;-63
2022/12/30 10:10:05;;;;;;;;;;;19.60;52.10;;;;;;6274133;22;43392;-64
2022/12/30 10:12:51;;;;;;;;;;;19.70;52.10;;;;;;6145006;23;43393;-65
2022/12/30 10:15:43;;;;;;;;;;;19.80;52.20;;;;;;6264575;22;43709;-65
2022/12/30 10:18:17;;;;;;;;;;;19.80;52.70;;;;;;6259070;22;43463;-62
2022/12/30 10:21:02;;;;;;;;;;;19.90;52.30;;;;;;6273359;22;43599;-65
2022/12/30 10:23:36;;;;;;;;;;;20.00;52.20;;;;;;6273795;22;43420;-63
2022/12/30 10:26:08;;;;;;;;;;;20.10;52.10;;;;;;6273090;22;43750;-64
2022/12/30 10:28:38;;;;;;;;;;;20.20;51.80;;;;;;6273297;22;43604;-65
2022/12/30 10:31:07;;;;;;;;;;;20.30;51.70;;;;;;6273527;22;43419;-64
2022/12/30 10:33:35;;;;;;;;;;;20.50;51.60;;;;;;6244832;22;43477;-66
2022/12/30 10:36:10;;;;;;;;;;;20.60;51.40;;;;;;6273451;22;44924;-62
2022/12/30 10:38:38;;;;;;;;;;;20.80;51.30;;;;;;6273711;22;43601;-64
2022/12/30 10:41:20;;;;;;;;;;;20.90;51.10;;;;;;6272711;22;43431;-65
2022/12/30 10:44:12;;;;;;;;;;;21.00;51.20;;;;;;6273868;22;43502;-64
2022/12/30 10:46:42;;;;;;;;;;;21.20;51.10;;;;;;6273269;22;43756;-68
2022/12/30 10:49:19;;;;;;;;;;;21.30;50.70;;;;;;6273511;22;43576;-69
2022/12/30 10:51:49;;;;;;;;;;;21.40;50.60;;;;;;6273301;22;43416;-70
2022/12/30 10:54:16;;;;;;;;;;;21.50;50.50;;;;;;6272529;22;43487;-68
2022/12/30 10:56:44;;;;;;;;;;;21.50;50.40;;;;;;6273287;22;44116;-69
2022/12/30 10:59:16;;;;;;;;;;;21.60;50.30;;;;;;6273612;22;43391;-68
2022/12/30 11:01:45;;;;;;;;;;;21.70;50.20;;;;;;6272931;22;44254;-72
2022/12/30 11:04:32;;;;;;;;;;;21.70;50.00;;;;;;6273154;22;43502;-72
2022/12/30 11:07:01;;;;;;;;;;;21.70;50.00;;;;;;6273469;22;43760;-72
2022/12/30 11:09:29;;;;;;;;;;;21.70;49.90;;;;;;6272751;22;43771;-72
2022/12/30 11:15:20;;;;;;;;;;;21.70;49.90;;;;;;6272457;22;43499;-69
2022/12/30 11:17:49;;;;;;;;;;;21.70;50.10;;;;;;6273229;22;43747;-71
2022/12/30 11:20:16;;;;;;;;;;;21.60;50.00;;;;;;6273315;22;43436;-69
2022/12/30 11:22:47;;;;;;;;;;;21.60;50.10;;;;;;6272395;22;43446;-69
2022/12/30 11:25:33;;;;;;;;;;;21.50;50.00;;;;;;6274021;22;43390;-69
2022/12/30 11:28:03;;;;;;;;;;;21.40;50.10;;;;;;6273134;22;44265;-69
2022/12/30 11:30:30;;;;;;;;;;;21.40;50.20;;;;;;6272648;22;43455;-69
2022/12/30 11:33:00;;;;;;;;;;;21.30;51.50;;;;;;6269642;22;43442;-69
2022/12/30 11:35:46;;;;;;;;;;;21.30;50.40;;;;;;6272725;22;43492;-69
2022/12/30 11:38:27;;;;;;;;;;;21.20;50.40;;;;;;6271994;22;44019;-75
2022/12/30 11:40:54;;;;;;;;;;;21.20;51.20;;;;;;6273596;22;43291;-73
2022/12/30 11:43:23;;;;;;;;;;;21.10;50.60;;;;;;6270243;22;43527;-73
2022/12/30 11:45:50;;;;;;;;;;;21.10;50.70;;;;;;6273249;22;43373;-74
2022/12/30 11:48:28;;;;;;;;;;;21.00;50.70;;;;;;6273114;22;43745;-74
2022/12/30 11:50:56;;;;;;;;;;;20.90;50.70;;;;;;6272288;22;43311;-71
2022/12/30 11:53:28;;;;;;;;;;;20.90;50.80;;;;;;6272700;22;43402;-71
2022/12/30 11:55:56;;;;;;;;;;;20.90;50.90;;;;;;6272919;22;43354;-69
2022/12/30 11:58:24;;;;;;;;;;;20.80;51.00;;;;;;6268302;22;45171;-70
2022/12/30 12:01:08;;;;;;;;;;;20.80;51.00;;;;;;6243686;22;44535;-70
2022/12/30 12:03:47;;;;;;;;;;;20.80;51.00;;;;;;6272572;22;43417;-70
2022/12/30 12:06:14;;;;;;;;;;;20.70;51.00;;;;;;6272575;22;43368;-70
2022/12/30 12:08:52;;;;;;;;;;;20.60;51.20;;;;;;6272633;22;43765;-70
2022/12/30 12:11:22;;;;;;;;;;;20.60;51.20;;;;;;6244859;22;43481;-70
2022/12/30 12:14:01;;;;;;;;;;;20.50;51.30;;;;;;6244761;22;43383;-70
2022/12/30 12:16:44;;;;;;;;;;;20.50;51.40;;;;;;6273272;22;43478;-70
2022/12/30 12:19:30;;;;;;;;;;;20.50;51.50;;;;;;6271793;22;43806;-69
2022/12/30 12:22:00;;;;;;;;;;;20.40;51.60;;;;;;6274069;22;43755;-69
2022/12/30 12:24:36;;;;;;;;;;;20.40;51.70;;;;;;6272409;22;43364;-70
2022/12/30 12:27:06;;;;;;;;;;;20.40;51.70;;;;;;6272629;22;43383;-70
2022/12/30 12:29:34;;;;;;;;;;;20.30;51.70;;;;;;6272383;22;44715;-69
2022/12/30 12:32:21;;;;;;;;;;;20.30;51.70;;;;;;6272113;22;43936;-69
2022/12/30 12:35:08;;;;;;;;;;;20.30;51.80;;;;;;6272570;22;43357;-68
2022/12/30 12:37:44;;;;;;;;;;;20.20;51.90;;;;;;6273003;22;43474;-71
2022/12/30 12:40:12;;;;;;;;;;;20.20;51.90;;;;;;6274023;22;43753;-71
2022/12/30 12:42:39;;;;;;;;;;;20.20;52.00;;;;;;6246762;22;43423;-71
2022/12/30 12:45:06;;;;;;;;;;;20.10;51.90;;;;;;6274219;22;43435;-70
2022/12/30 12:47:40;;;;;;;;;;;20.10;52.00;;;;;;6272767;22;43848;-68
2022/12/30 12:50:17;;;;;;;;;;;20.10;52.00;;;;;;6274683;22;43750;-69
2022/12/30 12:53:01;;;;;;;;;;;20.10;52.00;;;;;;6273029;22;43401;-69
2022/12/30 12:55:38;;;;;;;;;;;20.10;52.00;;;;;;6273615;22;43402;-69
2022/12/30 12:58:24;;;;;;;;;;;20.10;52.20;;;;;;6274018;22;43414;-68
2022/12/30 13:01:10;;;;;;;;;;;20.10;52.10;;;;;;6245171;22;44018;-70
2022/12/30 13:03:47;;;;;;;;;;;20.00;52.20;;;;;;6273415;22;43415;-70
2022/12/30 13:06:37;;;;;;;;;;;20.00;52.20;;;;;;6274617;22;43428;-72
2022/12/30 13:09:27;;;;;;;;;;;20.00;52.20;;;;;;6272815;22;43434;-68
2022/12/30 13:11:54;;;;;;;;;;;20.00;52.30;;;;;;6274623;22;43539;-69
2022/12/30 13:14:22;;;;;;;;;;;20.00;52.30;;;;;;6273541;22;43410;-70
2022/12/30 13:16:51;;;;;;;;;;;19.90;52.40;;;;;;6273957;22;43399;-69
2022/12/30 13:19:21;;;;;;;;;;;19.90;52.40;;;;;;6274793;22;43410;-69
2022/12/30 13:21:52;;;;;;;;;;;19.90;52.50;;;;;;6273479;22;44011;-69
2022/12/30 13:24:31;;;;;;;;;;;19.90;52.50;;;;;;6274753;22;43475;-69
2022/12/30 13:26:58;;;;;;;;;;;19.90;52.50;;;;;;6275139;22;43401;-69
2022/12/30 13:29:28;;;;;;;;;;;19.80;52.50;;;;;;6273960;22;43425;-69
2022/12/30 13:32:02;;;;;;;;;;;19.80;52.50;;;;;;6274644;22;43554;-69
2022/12/30 13:34:41;;;;;;;;;;;19.80;52.50;;;;;;6274770;22;43438;-69
2022/12/30 13:37:34;;;;;;;;;;;19.80;52.60;;;;;;6273422;22;43363;-68
2022/12/30 13:40:05;;;;;;;;;;;19.70;52.60;;;;;;6246175;22;43376;-69
2022/12/30 13:42:33;;;;;;;;;;;19.70;52.60;;;;;;6271568;22;44822;-69
2022/12/30 13:45:01;;;;;;;;;;;19.70;52.70;;;;;;6247238;22;43408;-69
2022/12/30 13:47:41;;;;;;;;;;;19.70;52.70;;;;;;6274871;22;43386;-69
2022/12/30 13:50:28;;;;;;;;;;;19.70;52.80;;;;;;6271765;22;43576;-69
2022/12/30 13:52:56;;;;;;;;;;;19.60;52.80;;;;;;6275041;22;44037;-69
2022/12/30 13:55:32;;;;;;;;;;;19.60;52.80;;;;;;6274078;22;43763;-69
2022/12/30 13:58:05;;;;;;;;;;;19.60;52.80;;;;;;6273622;22;43332;-69
2022/12/30 14:00:34;;;;;;;;;;;19.60;52.90;;;;;;6275017;22;43474;-69
2022/12/30 14:03:03;;;;;;;;;;;19.60;52.90;;;;;;6273857;22;43950;-68
2022/12/30 14:05:51;;;;;;;;;;;19.60;52.90;;;;;;6273570;22;43427;-69
2022/12/30 14:08:41;;;;;;;;;;;19.60;52.80;;;;;;6274668;22;43303;-69
2022/12/30 14:11:09;;;;;;;;;;;19.60;52.80;;;;;;6272925;22;43419;-69
2022/12/30 14:13:38;;;;;;;;;;;19.60;52.80;;;;;;6272721;22;43757;-69
2022/12/30 14:16:12;;;;;;;;;;;19.50;52.80;;;;;;6273988;22;43504;-69
2022/12/30 14:18:47;;;;;;;;;;;19.60;53.50;;;;;;6273120;22;43357;-69
2022/12/30 14:21:19;;;;;;;;;;;19.50;52.90;;;;;;6274349;22;43368;-69
2022/12/30 14:23:48;;;;;;;;;;;19.50;52.90;;;;;;6273425;22;44751;-69
2022/12/30 14:26:18;;;;;;;;;;;19.50;53.00;;;;;;6273434;22;43345;-69
2022/12/30 14:28:47;;;;;;;;;;;19.50;53.00;;;;;;6273981;22;43514;-69
2022/12/30 14:31:24;;;;;;;;;;;19.50;52.90;;;;;;6273964;22;43556;-69
2022/12/30 14:33:52;;;;;;;;;;;19.50;52.90;;;;;;6273314;22;44630;-69
2022/12/30 14:36:23;;;;;;;;;;;19.50;52.90;;;;;;6274389;22;43396;-70
2022/12/30 14:38:51;;;;;;;;;;;19.50;52.90;;;;;;6245651;22;43364;-69
2022/12/30 14:41:34;;;;;;;;;;;19.50;52.90;;;;;;6273858;22;43549;-69
2022/12/30 14:44:14;;;;;;;;;;;19.50;52.90;;;;;;6246487;22;43693;-69
2022/12/30 14:46:41;;;;;;;;;;;19.50;52.90;;;;;;6273153;22;43402;-69
2022/12/30 14:49:14;;;;;;;;;;;19.50;52.80;;;;;;6273755;22;43359;-69
2022/12/30 14:51:44;;;;;;;;;;;19.60;52.80;;;;;;6273677;22;43613;-69
2022/12/30 14:54:13;;;;;;;;;;;19.50;52.80;;;;;;6245774;22;44143;-69
2022/12/30 14:56:53;;;;;;;;;;;19.50;52.80;;;;;;6273729;22;43713;-69
2022/12/30 14:59:21;;;;;;;;;;;19.60;52.80;;;;;;6274165;22;43853;-69
2022/12/30 15:02:07;;;;;;;;;;;19.60;52.80;;;;;;6272913;22;43478;-69
2022/12/30 15:04:35;;;;;;;;;;;19.50;52.80;;;;;;6273806;22;44740;-69
2022/12/30 15:07:02;;;;;;;;;;;19.50;52.80;;;;;;6273004;22;43781;-69
2022/12/30 15:09:30;;;;;;;;;;;19.50;52.80;;;;;;6246443;22;43399;-69
2022/12/30 15:11:59;;;;;;;;;;;19.50;52.80;;;;;;6273945;22;43419;-69
2022/12/30 15:14:28;;;;;;;;;;;19.50;52.80;;;;;;6271676;22;45419;-69
2022/12/30 15:17:05;;;;;;;;;;;19.50;52.80;;;;;;6273525;22;43528;-69
2022/12/30 15:19:33;;;;;;;;;;;19.50;52.80;;;;;;6274416;22;43465;-69
2022/12/30 15:22:00;;;;;;;;;;;19.50;52.80;;;;;;6273030;22;43395;-69
2022/12/30 15:24:30;;;;;;;;;;;19.50;52.80;;;;;;6273725;22;44019;-69
2022/12/30 15:26:57;;;;;;;;;;;19.50;52.80;;;;;;6273644;22;43399;-69
2022/12/30 15:29:29;;;;;;;;;;;19.50;52.80;;;;;;6273230;22;43406;-70